Airfield :
LOGIN :

Register | Disclaimer

   EN    FR    IT 

 










Legend :    VFR   Marginal VFR   IFR   Intensive IFR   Very Intensive IFR
Visi :
Ceiling :
>= 8 km
>= 3000ft
5 to 8 km
1000 to 3000 ft
1500m to 5 km
500 to 1000 ft
800 to 1500m
200 to 500 ft
< 800m
< 200 ft
Symbols :   Thunderstorms  Fog  Heavy snow  Heavy precipitations  Wind > 20 kt
SIGMETs :     Misc.  Thunderstorms  Icing  Turbulence  Mountain Waves  Volcanic Ashes







- Airport Elevation : 308 ft
- IATA code : POZ


EPPO - Poznan-Lawica

CURRENT METAR :
  • 100800Z 28014KT 9999 SCT043 04/02 Q1004 R10/29//95

EXPIRED METARs :
  • 100730Z 27013KT 9999 SCT028 03/01 Q1004 R10/29//95
  • 100700Z 27012KT 9999 SCT028 03/02 Q1003 R10/29//95
  • 100630Z 29020KT 9999 -SHRA BKN022CB 03/01 Q1003 R10/29//95
  • 100600Z 29016KT 9999 SCT021 04/01 Q1002 R10/29//95
  • 100530Z 28014KT 9999 FEW017 SCT021 04/02 Q1002 R10/29//95

TAF TAF EPPO
Valid from the 10 at 06:00 until the 11 at 06:00 UTC


100530Z 1006/1106 28015KT 9999 BKN020
TEMPO 1006/1106 28015G25KT 4500 SHRA BKN009 BKN015CB
PROB40
TEMPO 1006/1015 28020G35KT
PROB30
TEMPO 1006/1106 1400 SHRASN BKN004 BKN014CB
No reported NOTAMs for that airfield.



MET'MAP, your aeronautical weather chart ! - Copyright ORBIFLY December 2007 - Disclaimer

ORBIFLY MET'MAP TEAM :

Programming & Development : Alexandra Zaïnal
Concept & Development : Baudouin d'Aumeries
Co-Development & Prog : Marc-Olivier Méhu
Technical & hardware support : Manuel Goepfert

Contact : metmap@orbifly.com




SOURCES & CREDITS :

   NOAA